Time;durP1;ratioP1;P1;durP2;ratioP2;P2;SDS_P1;SDS_P2;PMS_P1;PMS_P2;Temp;Humidity;BMP_temperature;BMP_pressure;BME280_temperature;BME280_humidity;BME280_pressure;Samples;Min_cycle;Max_cycle;Signal;HPM_P1;HPM_P2
2021/09/17 00:00:14;;;;;;;1.03;1.00;;;;;;;17.10;67.24;98968.19;5118493;27;40509;-80
2021/09/17 00:02:43;;;;;;;1.03;0.93;;;;;;;17.12;67.37;98984.97;5118123;27;41913;-81
2021/09/17 00:05:11;;;;;;;1.63;1.30;;;;;;;17.04;67.42;98982.97;5152741;27;42929;-80
2021/09/17 00:07:38;;;;;;;1.30;1.13;;;;;;;16.86;67.32;98968.50;5135047;27;39224;-80
2021/09/17 00:10:07;;;;;;;1.23;1.13;;;;;;;16.88;67.55;98975.41;5116713;27;40737;-81
2021/09/17 00:12:35;;;;;;;1.00;1.00;;;;;;;16.76;68.13;98973.78;5134634;27;43143;-81
2021/09/17 00:15:03;;;;;;;1.37;1.27;;;;;;;16.63;67.99;98950.91;5134991;27;41110;-83
2021/09/17 00:17:31;;;;;;;1.37;1.27;;;;;;;16.73;68.30;98979.41;5134476;27;39889;-80
2021/09/17 00:20:00;;;;;;;1.57;1.47;;;;;;;16.76;68.33;98984.50;5118173;27;41062;-80
2021/09/17 00:22:27;;;;;;;1.63;1.50;;;;;;;16.70;68.39;98976.97;5116606;27;41858;-81
2021/09/17 00:24:55;;;;;;;1.20;1.10;;;;;;;16.65;68.62;98975.69;5116847;27;42556;-80
2021/09/17 00:27:23;;;;;;;2.00;1.67;;;;;;;16.62;68.75;98974.13;5134487;27;40645;-80
2021/09/17 00:29:50;;;;;;;1.63;1.53;;;;;;;16.58;68.74;98971.81;5133844;27;41595;-82
2021/09/17 00:32:18;;;;;;;1.60;1.50;;;;;;;16.53;69.05;98966.88;5117428;27;42779;-81
2021/09/17 00:34:45;;;;;;;1.77;1.50;;;;;;;16.48;69.18;98963.72;5133513;27;42344;-81
2021/09/17 00:37:14;;;;;;;1.50;1.27;;;;;;;16.43;68.85;98971.31;5153060;27;40759;-81
2021/09/17 00:39:42;;;;;;;3.70;1.33;;;;;;;16.34;69.01;98972.06;5152950;27;41758;-81
2021/09/17 00:42:10;;;;;;;1.40;1.23;;;;;;;16.11;69.47;98947.28;5134033;27;43096;-80
2021/09/17 00:44:37;;;;;;;1.77;1.67;;;;;;;16.21;69.80;98979.41;5153258;27;42145;-82
2021/09/17 00:47:05;;;;;;;1.50;1.40;;;;;;;16.14;69.88;98973.75;5117183;27;40182;-80
2021/09/17 00:49:32;;;;;;;1.50;1.40;;;;;;;16.03;69.92;98971.97;5117636;27;42132;-81
2021/09/17 00:52:00;;;;;;;1.50;1.40;;;;;;;15.99;70.09;98973.19;5134152;27;43238;-81
2021/09/17 00:54:34;;;;;;;1.40;1.30;;;;;;;15.74;70.14;98938.78;5116971;27;42200;-81
2021/09/17 00:57:04;;;;;;;1.40;1.30;;;;;;;15.84;70.22;98974.44;5117264;27;38832;-81
2021/09/17 00:59:31;;;;;;;2.27;1.93;;;;;;;15.79;70.33;98974.00;5134518;27;41900;-80
2021/09/17 01:01:59;;;;;;;1.37;1.20;;;;;;;15.64;70.79;98961.88;5134777;27;42839;-80
2021/09/17 01:04:27;;;;;;;1.40;1.30;;;;;;;15.65;70.81;98969.78;5134869;27;42626;-80
2021/09/17 01:06:55;;;;;;;1.90;1.63;;;;;;;15.65;70.75;98980.44;5116622;27;40334;-82
2021/09/17 01:09:23;;;;;;;1.30;1.20;;;;;;;15.61;71.14;98978.16;5133496;27;41927;-80
2021/09/17 01:11:52;;;;;;;2.00;1.43;;;;;;;15.54;70.90;98977.78;5116580;27;41707;-80
2021/09/17 01:14:20;;;;;;;1.47;1.37;;;;;;;15.39;70.46;98958.50;5116670;27;41188;-80
2021/09/17 01:16:48;;;;;;;1.47;1.30;;;;;;;15.44;70.51;98976.81;5117628;27;39214;-80
2021/09/17 01:19:15;;;;;;;2.27;1.27;;;;;;;15.40;70.75;98978.88;5115576;27;40727;-80
2021/09/17 01:21:44;;;;;;;1.57;1.23;;;;;;;15.32;70.89;98977.81;5117193;27;42221;-81
2021/09/17 01:24:12;;;;;;;1.70;1.60;;;;;;;15.26;71.02;98968.47;5152386;27;42108;-82
2021/09/17 01:26:40;;;;;;;1.27;1.13;;;;;;;15.24;70.92;98981.06;5116740;27;38937;-81
2021/09/17 01:29:07;;;;;;;1.43;1.33;;;;;;;15.09;71.33;98960.94;5116543;27;41848;-80
2021/09/17 01:31:34;;;;;;;1.60;1.50;;;;;;;15.16;71.75;98978.19;5116232;27;41988;-80
2021/09/17 01:34:08;;;;;;;1.17;1.07;;;;;;;15.12;72.10;98976.72;5116763;27;41629;-80
2021/09/17 01:36:36;;;;;;;2.00;1.70;;;;;;;15.05;72.48;98964.84;5132695;27;40213;-81
2021/09/17 01:39:05;;;;;;;2.20;1.90;;;;;;;15.05;72.01;98975.50;5133692;27;41835;-81
2021/09/17 01:41:32;;;;;;;1.77;1.50;;;;;;;14.90;72.10;98953.56;5117434;27;41712;-80
2021/09/17 01:44:00;;;;;;;1.80;1.70;;;;;;;14.91;72.40;98957.06;5115882;27;41257;-80
2021/09/17 01:46:28;;;;;;;1.70;1.60;;;;;;;14.95;72.51;98969.22;5133549;27;40637;-80
2021/09/17 01:48:55;;;;;;;1.80;1.70;;;;;;;14.91;72.31;98973.06;5116243;27;42221;-81
2021/09/17 01:51:23;;;;;;;1.53;1.40;;;;;;;14.85;72.62;98958.38;5097736;27;43123;-80
2021/09/17 01:53:50;;;;;;;1.40;1.30;;;;;;;14.84;72.34;98958.50;5133071;27;42551;-80
2021/09/17 01:56:23;;;;;;;1.93;1.83;;;;;;;14.72;72.72;98942.50;5151259;27;40021;-80
2021/09/17 01:58:51;;;;;;;2.10;1.87;;;;;;;14.79;73.46;98958.03;5132666;27;41999;-81
2021/09/17 02:01:19;;;;;;;2.03;1.90;;;;;;;14.76;73.22;98953.78;5133346;27;42574;-80
2021/09/17 02:03:47;;;;;;;1.73;1.63;;;;;;;14.74;74.05;98950.38;5133191;27;42486;-81
2021/09/17 02:06:19;;;;;;;1.77;1.67;;;;;;;14.63;74.22;98935.22;5114974;27;39038;-81
2021/09/17 02:08:47;;;;;;;1.43;1.33;;;;;;;14.70;74.17;98949.81;5132637;27;42565;-80
2021/09/17 02:11:15;;;;;;;1.83;1.63;;;;;;;14.66;73.78;98959.00;5115831;27;41699;-80
2021/09/17 02:13:44;;;;;;;1.80;1.70;;;;;;;14.63;74.14;98953.03;5132769;27;42384;-80
2021/09/17 02:16:12;;;;;;;2.20;1.73;;;;;;;14.62;73.89;98949.53;5133168;27;40901;-80
2021/09/17 02:18:39;;;;;;;2.47;2.07;;;;;;;14.57;73.92;98943.72;5151233;27;41862;-80
2021/09/17 02:21:07;;;;;;;1.57;1.47;;;;;;;14.45;73.88;98934.00;5133790;27;42121;-81
2021/09/17 02:23:34;;;;;;;4.83;2.73;;;;;;;14.52;74.17;98945.03;5133206;27;42971;-81
2021/09/17 02:26:02;;;;;;;1.40;1.10;;;;;;;14.54;73.72;98953.75;5133835;27;40143;-80
2021/09/17 02:28:30;;;;;;;2.07;1.80;;;;;;;14.50;73.74;98953.13;5151274;27;42827;-80
2021/09/17 02:30:58;;;;;;;2.00;1.80;;;;;;;14.36;74.04;98929.34;5151797;27;43284;-80
2021/09/17 02:33:26;;;;;;;1.70;1.60;;;;;;;14.46;74.44;98951.69;5131612;27;42205;-81
2021/09/17 02:35:54;;;;;;;1.50;1.27;;;;;;;14.44;74.55;98958.09;5132457;27;38932;-80
2021/09/17 02:38:22;;;;;;;1.50;1.40;;;;;;;14.42;74.25;98949.38;5151729;27;41843;-80
2021/09/17 02:40:50;;;;;;;1.60;1.50;;;;;;;14.38;74.24;98948.72;5114907;27;42143;-80
2021/09/17 02:43:17;;;;;;;1.60;1.50;;;;;;;14.37;73.84;98950.53;5132906;27;43145;-81
2021/09/17 02:45:45;;;;;;;1.63;1.43;;;;;;;14.25;74.00;98938.16;5131180;27;39055;-80
2021/09/17 02:48:14;;;;;;;1.70;1.57;;;;;;;14.31;73.96;98952.84;5115225;27;40628;-80
2021/09/17 02:50:42;;;;;;;2.03;1.40;;;;;;;14.19;73.90;98935.13;5132149;27;43232;-80
2021/09/17 02:53:09;;;;;;;2.00;1.73;;;;;;;14.21;73.98;98939.38;5131506;27;42439;-81
2021/09/17 02:55:37;;;;;;;1.30;1.20;;;;;;;14.21;73.98;98942.03;5132069;27;40238;-80
2021/09/17 02:58:07;;;;;;;1.73;1.20;;;;;;;14.08;73.63;98917.28;5118896;27;40838;-80
2021/09/17 03:00:37;;;;;;;2.17;1.90;;;;;;;14.11;74.30;98924.19;5154648;27;42694;-80
2021/09/17 03:03:04;;;;;;;2.00;1.80;;;;;;;14.10;74.33;98927.81;5118807;27;41498;-80
2021/09/17 03:05:33;;;;;;;2.20;1.80;;;;;;;14.11;74.35;98935.69;5135952;27;41551;-80
2021/09/17 03:08:01;;;;;;;2.00;1.80;;;;;;;14.09;74.30;98936.78;5117288;27;40961;-80
2021/09/17 03:10:28;;;;;;;1.83;1.33;;;;;;;13.79;73.97;98887.53;5135660;27;42738;-80
2021/09/17 03:12:56;;;;;;;2.37;2.10;;;;;;;14.01;74.21;98932.00;5135587;27;41808;-80
2021/09/17 03:15:23;;;;;;;2.43;2.03;;;;;;;13.96;74.06;98932.38;5135630;27;40948;-81
2021/09/17 03:17:51;;;;;;;1.10;1.00;;;;;;;13.97;73.79;98931.38;5135755;27;41802;-80
2021/09/17 03:20:19;;;;;;;1.37;1.27;;;;;;;13.94;74.07;98934.31;5135561;27;42836;-80
2021/09/17 03:22:48;;;;;;;0.93;0.90;;;;;;;13.90;74.11;98924.84;5118706;27;41656;-80
2021/09/17 03:25:15;;;;;;;1.97;1.77;;;;;;;13.89;74.16;98925.81;5153166;27;39777;-80
2021/09/17 03:27:43;;;;;;;2.83;1.77;;;;;;;13.86;74.08;98927.84;5135413;27;41826;-80
2021/09/17 03:30:12;;;;;;;2.23;1.53;;;;;;;13.71;74.34;98903.22;5135167;27;43060;-80
2021/09/17 03:32:40;;;;;;;2.67;1.93;;;;;;;13.83;74.14;98925.44;5135861;27;43159;-80
2021/09/17 03:35:08;;;;;;;2.10;1.90;;;;;;;13.74;74.32;98908.31;5118057;27;38833;-81
2021/09/17 03:37:36;;;;;;;1.53;1.30;;;;;;;13.79;74.31;98919.47;5117391;27;40811;-80
2021/09/17 03:40:07;;;;;;;2.20;1.60;;;;;;;13.77;74.48;98924.06;5117246;27;42717;-80
2021/09/17 03:42:35;;;;;;;1.73;1.40;;;;;;;13.76;74.58;98927.69;5134760;27;42536;-80
2021/09/17 03:45:02;;;;;;;1.60;1.50;;;;;;;13.59;74.55;98905.00;5118332;27;38822;-81
2021/09/17 03:47:30;;;;;;;1.87;1.70;;;;;;;13.61;74.46;98904.84;5117873;27;41782;-80
2021/09/17 03:49:57;;;;;;;1.87;1.50;;;;;;;13.73;74.56;98932.38;5116911;27;41689;-80
2021/09/17 03:52:25;;;;;;;1.90;1.70;;;;;;;13.71;74.19;98929.00;5153741;27;42501;-79
2021/09/17 03:54:52;;;;;;;2.50;1.93;;;;;;;13.68;74.11;98931.88;5117795;27;39137;-81
2021/09/17 03:57:21;;;;;;;1.60;1.27;;;;;;;13.66;74.07;98929.31;5135549;27;42468;-81
2021/09/17 03:59:49;;;;;;;2.20;1.53;;;;;;;13.57;74.08;98924.69;5116336;27;42749;-80
2021/09/17 04:02:16;;;;;;;1.43;1.33;;;;;;;13.59;74.09;98923.63;5117288;27;42738;-80
2021/09/17 04:04:44;;;;;;;1.80;1.67;;;;;;;13.58;74.08;98929.06;5117680;27;39677;-80
2021/09/17 04:07:11;;;;;;;1.80;1.30;;;;;;;13.54;74.20;98930.22;5133740;27;42092;-81
2021/09/17 04:09:38;;;;;;;1.90;1.63;;;;;;;13.42;74.01;98915.16;5117347;27;41548;-80
2021/09/17 04:12:06;;;;;;;1.50;1.30;;;;;;;13.40;74.40;98911.75;5134174;27;41463;-80
2021/09/17 04:14:35;;;;;;;2.00;1.60;;;;;;;13.46;74.82;98925.47;5134383;27;39719;-80
2021/09/17 04:17:03;;;;;;;1.67;1.50;;;;;;;13.46;74.42;98927.28;5118333;27;40703;-81
2021/09/17 04:19:30;;;;;;;2.00;1.50;;;;;;;13.32;74.47;98908.81;5133043;27;42630;-80
2021/09/17 04:21:58;;;;;;;1.63;1.53;;;;;;;13.30;74.45;98903.63;5117544;27;41579;-81
2021/09/17 04:24:25;;;;;;;1.50;1.30;;;;;;;13.27;74.28;98912.66;5115954;27;40622;-81
2021/09/17 04:26:53;;;;;;;1.90;1.50;;;;;;;13.36;74.50;98926.25;5134667;27;40836;-80
2021/09/17 04:29:20;;;;;;;1.37;1.27;;;;;;;13.29;74.67;98924.03;5132886;27;43612;-80
2021/09/17 04:31:49;;;;;;;1.70;1.60;;;;;;;13.27;74.58;98923.28;5117437;27;41076;-80
2021/09/17 04:34:17;;;;;;;1.40;1.30;;;;;;;13.17;74.65;98908.97;5134194;27;39356;-80
2021/09/17 04:36:44;;;;;;;1.40;1.30;;;;;;;13.26;74.57;98936.69;5133479;27;42489;-80
2021/09/17 04:39:12;;;;;;;1.37;1.20;;;;;;;13.24;74.41;98934.16;5133411;27;41926;-80
2021/09/17 04:41:39;;;;;;;1.63;1.40;;;;;;;13.14;74.32;98925.13;5134248;27;42637;-80
2021/09/17 04:44:07;;;;;;;1.70;1.60;;;;;;;13.20;74.55;98939.81;5134289;27;40081;-81
2021/09/17 04:46:34;;;;;;;1.80;1.43;;;;;;;13.17;74.50;98943.53;5130671;27;42038;-81
2021/09/17 04:49:04;;;;;;;1.47;1.30;;;;;;;13.12;74.65;98944.78;5133863;27;43525;-80
2021/09/17 04:51:31;;;;;;;2.10;1.60;;;;;;;13.05;74.56;98933.75;5117036;27;42701;-80
2021/09/17 04:53:59;;;;;;;1.87;1.67;;;;;;;13.12;74.29;98950.09;5133745;27;40393;-80
2021/09/17 04:56:27;;;;;;;1.93;1.23;;;;;;;13.10;74.40;98955.56;5117016;27;41728;-80
2021/09/17 04:58:54;;;;;;;2.10;1.60;;;;;;;13.08;74.53;98954.81;5132632;27;42714;-80
2021/09/17 05:01:22;;;;;;;1.40;1.30;;;;;;;13.07;74.62;98952.25;5117723;27;40983;-81
2021/09/17 05:03:50;;;;;;;1.40;1.17;;;;;;;13.04;74.64;98952.47;5151243;27;39774;-80
2021/09/17 05:06:19;;;;;;;2.33;1.90;;;;;;;13.06;75.03;98951.41;5152469;27;41836;-80
2021/09/17 05:08:47;;;;;;;2.07;1.70;;;;;;;13.06;75.04;98951.41;5132311;27;42923;-80
2021/09/17 05:11:14;;;;;;;2.23;1.70;;;;;;;13.07;74.56;98955.75;5133086;27;42150;-80
2021/09/17 05:13:42;;;;;;;1.77;1.60;;;;;;;13.07;74.72;98958.44;5116572;27;38818;-80
2021/09/17 05:16:10;;;;;;;1.60;1.50;;;;;;;13.04;74.88;98942.69;5116971;27;41073;-80
2021/09/17 05:18:37;;;;;;;5.93;4.20;;;;;;;13.07;74.66;98947.78;5115261;27;42245;-81
2021/09/17 05:21:05;;;;;;;3.23;2.67;;;;;;;13.09;74.59;98955.66;5152025;27;42316;-80
2021/09/17 05:23:34;;;;;;;3.60;2.10;;;;;;;13.09;74.89;98953.84;5134552;27;40020;-80
2021/09/17 05:26:03;;;;;;;1.97;1.47;;;;;;;13.09;74.66;98956.50;5117386;27;40747;-79
2021/09/17 05:28:30;;;;;;;2.23;1.70;;;;;;;13.12;74.78;98958.94;5151879;27;43029;-79
2021/09/17 05:30:58;;;;;;;2.23;1.93;;;;;;;13.15;74.56;98964.06;5134304;27;41218;-80
2021/09/17 05:33:25;;;;;;;3.03;1.60;;;;;;;13.17;74.90;98962.16;5132736;27;40175;-79
2021/09/17 05:35:53;;;;;;;1.57;1.30;;;;;;;13.17;74.76;98958.66;5116672;27;42204;-80
2021/09/17 05:38:20;;;;;;;2.47;1.80;;;;;;;13.23;74.54;98969.69;5133047;27;43056;-80
2021/09/17 05:40:49;;;;;;;2.07;1.50;;;;;;;13.25;74.76;98961.59;5133213;27;41183;-80
2021/09/17 05:43:17;;;;;;;1.80;1.50;;;;;;;13.25;74.54;98957.13;5134358;27;39400;-80
2021/09/17 05:45:44;;;;;;;2.23;1.70;;;;;;;13.23;74.43;98943.09;5132827;27;42447;-80
2021/09/17 05:48:12;;;;;;;1.77;1.53;;;;;;;13.37;74.32;98966.03;5117114;27;41883;-80
2021/09/17 05:50:39;;;;;;;2.63;2.20;;;;;;;13.42;74.37;98960.38;5132700;27;42320;-80
2021/09/17 05:53:07;;;;;;;2.00;1.80;;;;;;;13.45;74.71;98955.72;5138966;27;39959;-81
2021/09/17 05:55:34;;;;;;;3.57;2.03;;;;;;;13.51;74.58;98959.72;5136744;27;41755;-81
2021/09/17 05:58:03;;;;;;;1.70;1.60;;;;;;;13.56;74.58;98953.13;5136970;27;42061;-80
2021/09/17 06:00:31;;;;;;;1.30;1.20;;;;;;;13.62;74.31;98957.13;5136029;27;41611;-80
2021/09/17 06:02:58;;;;;;;1.93;1.30;;;;;;;13.69;74.25;98961.03;5153235;27;38614;-80
2021/09/17 06:05:26;;;;;;;2.33;1.57;;;;;;;13.76;74.56;98956.09;5152295;27;42476;-81
2021/09/17 06:07:53;;;;;;;2.37;2.00;;;;;;;13.78;74.61;98948.84;5162437;27;43256;-81
2021/09/17 06:10:21;;;;;;;1.73;1.63;;;;;;;13.97;74.66;98954.53;5117564;27;41747;-80
2021/09/17 06:12:49;;;;;;;2.50;1.73;;;;;;;14.08;74.28;98959.91;5135237;27;39972;-80
2021/09/17 06:15:18;;;;;;;3.80;2.20;;;;;;;14.21;74.46;98951.84;5115905;27;42020;-81
2021/09/17 06:17:46;;;;;;;3.40;1.73;;;;;;;14.34;74.32;98957.94;5133638;27;42778;-80
2021/09/17 06:20:15;;;;;;;3.73;2.60;;;;;;;14.40;74.21;98946.81;5133443;27;43042;-80
2021/09/17 06:22:45;;;;;;;3.73;2.40;;;;;;;14.58;74.02;98955.22;5132735;27;39848;-81
2021/09/17 06:25:15;;;;;;;2.97;2.63;;;;;;;14.66;74.22;98953.66;5150310;27;42019;-80
2021/09/17 06:27:42;;;;;;;3.17;2.87;;;;;;;14.76;74.64;98950.28;5111881;27;43151;-83
2021/09/17 06:30:11;;;;;;;4.03;3.27;;;;;;;14.84;74.47;98950.50;5075452;27;41605;-89
2021/09/17 06:32:40;;;;;;;6.43;3.43;;;;;;;14.94;74.57;98956.84;5092611;27;39115;-80
2021/09/17 06:35:09;;;;;;;3.80;2.80;;;;;;;15.12;74.46;98960.69;5130952;27;41885;-85
2021/09/17 06:37:44;;;;;;;3.40;2.53;;;;;;;15.37;73.94;98956.91;5135734;27;41706;-87
2021/09/17 06:40:13;;;;;;;4.53;3.23;;;;;;;15.45;73.51;98963.31;5128782;27;41205;-80
2021/09/17 06:42:41;;;;;;;3.60;3.03;;;;;;;15.49;73.31;98961.28;5114377;27;39570;-78
2021/09/17 06:45:09;;;;;;;3.20;2.57;;;;;;;15.52;73.33;98954.84;5143550;27;42785;-82
2021/09/17 06:47:47;;;;;;;4.13;3.43;;;;;;;15.55;73.72;98952.81;5148817;27;41667;-80
2021/09/17 06:50:16;;;;;;;3.00;2.30;;;;;;;15.62;73.26;98964.69;5148304;27;42786;-80
2021/09/17 06:52:48;;;;;;;3.40;2.67;;;;;;;15.73;73.44;98961.97;5131238;27;38932;-80
2021/09/17 06:55:16;;;;;;;2.83;2.50;;;;;;;15.87;73.15;98963.50;5130739;27;42833;-77
2021/09/17 06:57:48;;;;;;;2.60;2.10;;;;;;;15.96;72.79;98957.41;5112955;27;42988;-78
2021/09/17 07:00:19;;;;;;;2.90;2.20;;;;;;;16.03;72.63;98957.75;5108448;27;41449;-78
2021/09/17 07:02:48;;;;;;;4.17;3.03;;;;;;;16.05;72.82;98955.81;5126738;27;39638;-81
2021/09/17 07:05:16;;;;;;;4.10;3.23;;;;;;;16.06;72.65;98955.69;5126444;27;42797;-77
2021/09/17 07:07:44;;;;;;;3.80;2.93;;;;;;;16.18;72.31;98961.84;5127555;27;43552;-81
2021/09/17 07:10:12;;;;;;;3.97;3.00;;;;;;;16.43;72.15;98960.63;5128635;27;42937;-80
2021/09/17 07:12:40;;;;;;;4.13;3.10;;;;;;;16.74;71.50;98951.69;5128043;27;40189;-83
2021/09/17 07:15:08;;;;;;;3.47;3.03;;;;;;;17.09;70.93;98964.66;5127458;27;40745;-79
2021/09/17 07:17:36;;;;;;;4.00;2.90;;;;;;;17.10;70.50;98933.41;5146847;27;41716;-81
2021/09/17 07:20:06;;;;;;;4.07;3.07;;;;;;;17.92;69.46;98963.53;5145990;27;41543;-84
2021/09/17 07:22:34;;;;;;;4.40;3.43;;;;;;;18.60;67.88;98973.25;5145088;27;39518;-80
2021/09/17 07:25:02;;;;;;;5.73;3.60;;;;;;;19.18;65.76;98974.94;5146231;27;42731;-76
2021/09/17 07:27:30;;;;;;;4.17;3.30;;;;;;;19.28;64.91;98975.78;5147607;27;42708;-80
2021/09/17 07:29:58;;;;;;;4.07;3.50;;;;;;;19.35;64.90;98950.00;5127791;27;42177;-84
2021/09/17 07:32:26;;;;;;;3.97;3.40;;;;;;;19.63;64.62;98965.16;5129150;27;39677;-79
2021/09/17 07:34:54;;;;;;;3.43;3.10;;;;;;;19.88;63.86;98968.09;5129503;27;41957;-84
2021/09/17 07:37:24;;;;;;;3.97;3.07;;;;;;;20.29;63.09;98972.03;5129446;27;42677;-83
2021/09/17 07:39:51;;;;;;;3.50;3.00;;;;;;;20.59;62.57;98976.19;5130086;27;42394;-76
2021/09/17 07:42:19;;;;;;;3.53;3.00;;;;;;;21.35;59.49;98995.22;5115987;27;40120;-80
2021/09/17 07:44:46;;;;;;;3.67;2.90;;;;;;;21.37;58.97;98979.75;5134241;27;40987;-92
2021/09/17 07:47:14;;;;;;;3.00;2.70;;;;;;;21.48;58.30;98998.31;5134421;27;43828;-83
2021/09/17 07:49:42;;;;;;;4.40;2.57;;;;;;;21.40;58.25;98995.56;5134422;27;41225;-85
2021/09/17 07:52:10;;;;;;;3.17;2.63;;;;;;;21.22;58.53;98981.34;5118381;27;39365;-83
2021/09/17 07:54:39;;;;;;;3.37;2.80;;;;;;;21.26;58.50;98983.56;5152605;27;42007;-81
2021/09/17 07:57:06;;;;;;;3.23;2.90;;;;;;;21.34;58.29;98972.81;5135634;27;43393;-88
2021/09/17 07:59:34;;;;;;;2.60;2.40;;;;;;;21.32;58.35;98977.53;5118118;27;41506;-87
2021/09/17 08:02:02;;;;;;;11.33;3.30;;;;;;;21.72;57.54;98987.63;5117835;27;38931;-89
2021/09/17 08:04:30;;;;;;;3.53;3.23;;;;;;;21.88;56.36;98983.31;5131271;27;40763;-83
2021/09/17 08:06:57;;;;;;;3.47;2.77;;;;;;;22.24;56.28;98982.06;5118216;27;41830;-86
2021/09/17 08:09:25;;;;;;;4.57;3.13;;;;;;;22.93;53.76;98991.53;5117876;27;41118;-87
2021/09/17 08:11:55;;;;;;;3.50;2.97;;;;;;;23.74;52.53;98996.69;5135138;27;39254;-83
2021/09/17 08:14:23;;;;;;;3.40;2.63;;;;;;;24.52;51.31;99018.25;5133036;27;40718;-82
2021/09/17 08:16:50;;;;;;;3.03;2.83;;;;;;;25.21;49.11;99027.19;5101653;27;42985;-83
2021/09/17 08:19:20;;;;;;;4.10;2.10;;;;;;;25.44;48.62;99016.25;5117395;27;41480;-89
2021/09/17 08:21:47;;;;;;;2.93;2.63;;;;;;;25.71;47.88;99021.06;5117866;27;39040;-81
2021/09/17 08:24:16;;;;;;;3.13;2.70;;;;;;;26.40;46.04;99021.47;5115661;27;40576;-81
2021/09/17 08:26:45;;;;;;;3.13;2.63;;;;;;;27.24;43.68;99051.53;5116966;27;41798;-87
2021/09/17 08:29:15;;;;;;;3.50;2.27;;;;;;;28.01;42.45;99032.34;5133457;27;43036;-78
2021/09/17 08:31:59;;;;;;;2.60;2.40;;;;;;;29.61;39.74;99059.66;5136631;27;40622;-80
2021/09/17 08:34:46;;;;;;;2.90;2.70;;;;;;;31.34;36.29;99077.72;5136626;27;41264;-81
2021/09/17 08:37:35;;;;;;;2.13;2.03;;;;;;;32.29;35.06;99072.72;5120114;27;43278;-80
2021/09/17 08:40:22;;;;;;;2.07;1.87;;;;;;;32.51;34.45;99075.84;5137508;27;41304;-80
2021/09/17 08:42:51;;;;;;;2.90;2.67;;;;;;;33.16;31.85;99091.31;5152381;27;40287;-80
2021/09/17 08:45:20;;;;;;;2.20;2.00;;;;;;;34.19;30.49;99096.25;5133355;27;42971;-81
2021/09/17 08:47:49;;;;;;;2.40;2.10;;;;;;;34.90;30.00;99091.38;5133660;27;43078;-81
2021/09/17 08:50:19;;;;;;;1.83;1.73;;;;;;;34.92;29.78;99078.19;5133799;27;42054;-81
2021/09/17 08:52:49;;;;;;;2.13;2.03;;;;;;;34.66;29.91;99085.13;5121453;27;40220;-79
2021/09/17 08:55:17;;;;;;;1.97;1.87;;;;;;;33.62;30.96;99056.78;5149901;27;40962;-77
2021/09/17 08:57:45;;;;;;;2.30;2.10;;;;;;;32.94;31.48;99075.66;5152263;27;43675;-81
2021/09/17 09:00:38;;;;;;;3.20;2.90;;;;;;;32.16;31.49;99072.88;5151983;27;42553;-81
2021/09/17 09:03:08;;;;;;;3.33;3.03;;;;;;;31.40;32.37;99068.63;5112525;27;40555;-84
2021/09/17 09:05:37;;;;;;;4.47;3.80;;;;;;;30.67;33.36;99054.63;5113003;27;42325;-81
2021/09/17 09:08:06;;;;;;;3.23;2.53;;;;;;;30.17;34.28;99042.69;5095271;27;42891;-83
2021/09/17 09:10:35;;;;;;;3.40;3.10;;;;;;;29.84;35.24;99034.59;5109593;27;41677;-84
2021/09/17 09:13:05;;;;;;;3.67;3.00;;;;;;;29.46;36.07;99032.59;5120519;27;39108;-87
2021/09/17 09:15:35;;;;;;;4.13;3.63;;;;;;;29.09;36.18;99019.59;5133036;27;41146;-85
2021/09/17 09:18:08;;;;;;;3.57;3.10;;;;;;;28.77;37.44;99003.00;5134639;27;43370;-87
2021/09/17 09:20:38;;;;;;;2.27;2.07;;;;;;;28.60;37.34;99008.00;5132939;27;41398;-86
2021/09/17 09:23:09;;;;;;;2.53;2.33;;;;;;;28.26;37.67;99007.31;5135388;27;40945;-83
2021/09/17 09:25:48;;;;;;;4.00;3.43;;;;;;;27.97;38.55;99003.81;5132932;27;41905;-82
2021/09/17 09:28:18;;;;;;;3.00;2.47;;;;;;;27.67;39.88;98991.56;5133154;27;42096;-89
2021/09/17 09:30:46;;;;;;;2.50;2.30;;;;;;;27.27;39.31;98983.16;5115832;27;42134;-80
2021/09/17 09:33:43;;;;;;;2.27;2.07;;;;;;;26.89;38.82;98992.66;5133173;27;39948;-85
2021/09/17 09:36:13;;;;;;;2.70;1.97;;;;;;;26.65;39.67;98992.06;5114802;27;41986;-80
2021/09/17 09:38:43;;;;;;;1.83;1.70;;;;;;;26.37;41.04;98969.41;5132664;27;42695;-79
2021/09/17 09:41:14;;;;;;;2.17;1.97;;;;;;;26.25;40.53;98979.91;5136380;27;41728;-81
2021/09/17 09:43:49;;;;;;;2.97;1.67;;;;;;;26.20;40.66;98981.53;5163948;27;40990;-80
2021/09/17 09:46:22;;;;;;;2.20;1.90;;;;;;;26.23;41.67;98973.84;5151469;27;41866;-83
2021/09/17 09:49:22;;;;;;;2.20;2.00;;;;;;;26.29;40.99;98972.25;5131995;27;42067;-80
2021/09/17 09:51:55;;;;;;;2.60;2.40;;;;;;;26.22;40.75;98963.16;5088259;27;40921;-80
2021/09/17 09:54:24;;;;;;;3.10;2.47;;;;;;;26.42;40.67;98962.38;5111553;27;39725;-80
2021/09/17 09:56:54;;;;;;;2.93;2.03;;;;;;;26.65;39.87;98969.47;5130905;27;41870;-81
2021/09/17 09:59:24;;;;;;;17.17;13.17;;;;;;;27.06;39.28;98983.22;5115406;27;43420;-81
2021/09/17 10:01:54;;;;;;;7.20;4.30;;;;;;;27.42;38.36;98988.47;5130028;27;42611;-80
2021/09/17 10:04:24;;;;;;;2.70;2.50;;;;;;;27.92;36.96;98995.44;5129017;27;40948;-81
2021/09/17 10:07:02;;;;;;;2.00;1.73;;;;;;;27.85;36.83;98995.41;5130893;27;42344;-81
2021/09/17 10:09:31;;;;;;;1.93;1.73;;;;;;;27.45;37.96;98978.00;5122550;27;41831;-79
2021/09/17 10:12:00;;;;;;;1.33;1.23;;;;;;;27.15;37.91;98992.91;5151538;27;42530;-87
2021/09/17 10:14:30;;;;;;;1.50;1.37;;;;;;;26.76;38.74;98972.50;5132272;27;40304;-84
2021/09/17 10:16:59;;;;;;;1.23;1.13;;;;;;;26.61;39.68;98969.00;5132669;27;40464;-78
2021/09/17 10:19:29;;;;;;;1.60;1.50;;;;;;;26.65;39.31;98975.75;5151103;27;42888;-81
2021/09/17 10:21:58;;;;;;;2.23;2.10;;;;;;;26.70;39.24;98976.00;5132228;27;42499;-80
2021/09/17 10:24:30;;;;;;;1.60;1.50;;;;;;;27.12;38.38;98983.25;5149787;27;40146;-79
2021/09/17 10:26:59;;;;;;;2.30;2.10;;;;;;;28.05;36.76;98981.88;5132584;27;41872;-82
2021/09/17 10:29:32;;;;;;;1.83;1.73;;;;;;;28.99;35.68;98987.28;5132029;27;43814;-79
2021/09/17 10:32:01;;;;;;;1.60;1.50;;;;;;;29.50;34.34;98992.06;5132007;27;43013;-85
2021/09/17 10:34:36;;;;;;;1.50;1.40;;;;;;;29.45;34.02;99011.81;5131008;27;40028;-82
2021/09/17 10:37:05;;;;;;;1.57;1.47;;;;;;;29.03;35.27;98982.28;5150581;27;41851;-82
2021/09/17 10:39:33;;;;;;;1.40;1.30;;;;;;;28.85;35.13;98994.63;5132193;27;43026;-83
2021/09/17 10:42:15;;;;;;;2.60;2.10;;;;;;;28.61;34.89;98989.78;5115910;27;42005;-84
2021/09/17 10:45:17;;;;;;;2.67;1.30;;;;;;;28.33;36.17;98980.91;5150793;27;39917;-86
2021/09/17 10:48:10;;;;;;;1.47;1.37;;;;;;;28.18;37.10;98973.78;5131768;27;42037;-82
2021/09/17 10:50:42;;;;;;;1.30;1.20;;;;;;;28.08;37.12;98981.44;5090204;27;42646;-81
2021/09/17 10:53:11;;;;;;;2.07;1.60;;;;;;;28.05;36.56;98962.81;5131252;27;42472;-82
2021/09/17 10:58:41;;;;;;;1.50;1.40;;;;;;;28.69;34.77;98978.66;5129411;27;42126;-81
2021/09/17 11:01:11;;;;;;;1.40;1.30;;;;;;;28.94;33.99;98990.63;5130526;27;43136;-81
2021/09/17 11:03:58;;;;;;;1.50;1.40;;;;;;;29.59;34.55;98980.69;5149654;27;42490;-81
2021/09/17 11:06:29;;;;;;;11.70;8.27;;;;;;;31.11;31.99;98989.94;5146915;27;39117;-81
2021/09/17 11:08:57;;;;;;;2.33;2.00;;;;;;;31.49;32.01;99000.72;5149567;27;41863;-81
2021/09/17 11:11:27;;;;;;;1.90;1.80;;;;;;;31.67;30.48;99009.81;5113764;27;42137;-82
2021/09/17 11:13:56;;;;;;;1.50;1.40;;;;;;;31.78;30.86;98998.09;5131283;27;42028;-85
2021/09/17 11:16:25;;;;;;;1.30;1.20;;;;;;;31.80;29.72;99007.97;5113961;27;39940;-81
2021/09/17 11:18:55;;;;;;;1.40;1.30;;;;;;;31.84;30.49;99001.81;5134359;27;40972;-88
2021/09/17 11:21:23;;;;;;;1.10;1.10;;;;;;;31.96;30.13;98990.94;5133991;27;42247;-83
2021/09/17 11:23:52;;;;;;;1.63;1.53;;;;;;;32.22;29.77;98985.13;5134206;27;41078;-86
2021/09/17 11:26:22;;;;;;;2.00;1.77;;;;;;;33.16;30.52;98976.03;5153418;27;40911;-86
2021/09/17 11:29:04;;;;;;;1.57;1.47;;;;;;;33.98;28.81;99000.72;5152443;27;42631;-86
2021/09/17 11:31:34;;;;;;;1.30;1.23;;;;;;;33.95;28.52;99000.34;5135652;27;41570;-84
2021/09/17 11:34:04;;;;;;;1.97;1.70;;;;;;;34.38;28.06;99006.19;5151242;27;41609;-81
2021/09/17 11:36:39;;;;;;;1.20;1.20;;;;;;;36.19;26.56;99000.22;5151668;27;39444;-84
2021/09/17 11:39:28;;;;;;;1.40;1.30;;;;;;;38.35;22.48;99017.91;5135036;27;40786;-83
2021/09/17 11:41:58;;;;;;;1.30;1.10;;;;;;;38.65;21.42;99029.09;5133546;27;41896;-83
2021/09/17 11:44:33;;;;;;;1.43;1.20;;;;;;;38.50;21.96;99011.59;5147820;27;45058;-84
2021/09/17 11:47:06;;;;;;;1.00;1.00;;;;;;;36.94;23.30;99008.50;5123312;27;39299;-88